KESF

Esler Regional Airport

Alexandria, Louisiana, USA
METAR KESF 140453Z AUTO 34004KT 10SM SCT019 OVC036 03/01 A3040 RMK AO2 SLP294 T00280011
Observed Flight Rules
Nov-14 @ 04:53 UTC (19 minutes ago) Visual Flight Rules
Wind Visibility Clouds
340° at 4 knots 10 miles
  • Scattered at 1,900' AGL
  • Overcast at 3,600' AGL
Temperatures Readings
Current 3°C / 37°F
Dewpoint 1°C / 34°F
Humidity 87%
Altimeter 30.4" Hg
Pressure 1029.4 hPa
Elevation 28
METAR KESF 140453Z AUTO 34004KT 10SM SCT019 OVC036 03/01 A3040 RMK AO2 SLP294 T00280011
Observed Flight Rules
Nov-14 @ 04:53 UTC
(19 minutes ago)
VFR
Wind Visibility
340° at 4 knots 10 miles
Clouds
  • Scattered at 1,900' AGL
  • Overcast at 3,600' AGL
Temperature Dewpoint
3°C / 37°F 1°C / 34°F
Humidity Altimeter Pressure
87% 30.4" Hg 1029.4 hPa